• Join FlightAware (Why Join?)
  • Login
  • US Flag 
09:42PM EDT


 

Airport Tracker/Info


-or-


 

Live Flight TrackerFlight Track Log ✈ N2853A ✈ 07-Jul-2013 ✈ KCPS - 3DW

Flight Track Log - Related Links

Times and Time Zones

All times are in EDT time to prevent confusion due to time zone crossing. See the N2853A flight status page for this flight to view local times or setup timezone preferences in your user account.

Time Position Orientation Groundspeed Altitude Reporting Facility
EDT Latitude Longitude Course Direction KTS MPH feet Rate Location/Type
08:39PM 38.5333 -90.2000 237° Southwest 74 85 3,000  Level Gateway (St. Louis) TRACON
08:40PM 38.5333 -90.2167 270° West 76 87 3,700 720 Climbing Gateway (St. Louis) TRACON
08:41PM 38.5333 -90.2500 270° West 76 87 4,400 720 Climbing Gateway (St. Louis) TRACON
08:42PM 38.5167 -90.2667 218° Southwest 76 87 5,000 600 Climbing Gateway (St. Louis) TRACON
08:43PM 38.5167 -90.3000 270° West 78 90 5,600 600 Climbing Gateway (St. Louis) TRACON
08:44PM 38.5167 -90.3167 270° West 76 87 6,300 600 Climbing Gateway (St. Louis) TRACON
08:45PM 38.5042 -90.3467 242° Southwest 74 85 6,900 480 Climbing Kansas City Center
08:46PM 38.4961 -90.3719 248° West 73 84 7,400 480 Climbing Kansas City Center
08:47PM 38.4892 -90.3972 251° West 75 86 8,000 480 Climbing Kansas City Center
08:48PM 38.4803 -90.4219 245° Southwest 76 87 8,500 480 Climbing Kansas City Center
08:49PM 38.4731 -90.4481 251° West 78 90 9,000 480 Climbing Kansas City Center
08:50PM 38.4661 -90.4750 252° West 79 91 9,500 480 Climbing Kansas City Center
08:51PM 38.4597 -90.5028 254° West 81 93 10,000 420 Climbing Kansas City Center
08:52PM 38.4556 -90.5297 259° West 78 90 10,400 420 Climbing Kansas City Center
08:53PM 38.4486 -90.5628 255° West 80 92 10,900 420 Climbing Kansas City Center
08:54PM 38.4400 -90.5900 248° West 81 93 11,300 360 Climbing Kansas City Center
08:55PM 38.4317 -90.6186 250° West 84 97 11,700 240 Climbing Kansas City Center
08:56PM 38.4247 -90.6486 254° West 87 100 11,900 60 Climbing Kansas City Center
08:57PM 38.4169 -90.6858 255° West 102 117 11,900  Level Kansas City Center
08:58PM 38.4072 -90.7261 253° West 115 132 11,900  Level Kansas City Center
08:59PM 38.3964 -90.7647 250° West 116 133 11,900  Level Kansas City Center
09:00PM 38.3869 -90.8047 253° West 117 135 11,900  Level Kansas City Center
09:01PM 38.3747 -90.8542 253° West 121 139 11,900  Level Kansas City Center
09:02PM 38.3600 -90.8942 245° Southwest 125 144 11,900  Level Kansas City Center
09:03PM 38.3406 -90.9328 237° Southwest 127 146 11,900 -60 Level Kansas City Center
09:04PM 38.3211 -90.9711 237° Southwest 128 147 11,800  Descending Kansas City Center
09:05PM 38.3042 -91.0103 241° Southwest 127 146 11,900  Climbing Kansas City Center
09:06PM 38.2872 -91.0497 241° Southwest 128 147 11,900  Level Kansas City Center
09:07PM 38.2678 -91.0875 237° Southwest 128 147 11,900  Level Kansas City Center
09:08PM 38.2475 -91.1247 235° Southwest 128 147 11,900  Level Kansas City Center
09:09PM 38.2269 -91.1714 241° Southwest 127 146 11,900  Level Kansas City Center
09:10PM 38.2100 -91.2108 241° Southwest 127 146 11,900  Level Kansas City Center
09:12PM 38.1911 -91.2494 238° Southwest 127 146 11,900  Level Kansas City Center
09:13PM 38.1711 -91.2886 237° Southwest 129 148 11,900  Level Kansas City Center
09:14PM 38.1528 -91.3286 240° Southwest 129 148 11,900  Level Kansas City Center
09:15PM 38.1344 -91.3675 239° Southwest 129 148 11,900  Level Kansas City Center
09:16PM 38.1156 -91.4061 238° Southwest 129 148 11,900  Level Kansas City Center
09:17PM 38.0961 -91.4450 238° Southwest 129 148 12,000  Climbing Kansas City Center
09:18PM 38.0753 -91.4936 241° Southwest 129 148 12,000  Level Kansas City Center
09:19PM 38.0553 -91.5317 236° Southwest 129 148 12,000  Level Kansas City Center
09:20PM 38.0394 -91.5725 244° Southwest 129 148 12,000 -60 Level Kansas City Center
09:21PM 38.0214 -91.6136 241° Southwest 132 152 11,900 -60 Descending Kansas City Center
09:22PM 38.0003 -91.6508 234° Southwest 131 151 11,900  Level Kansas City Center
09:23PM 37.9839 -91.6919 243° Southwest 130 150 11,900 -60 Level Kansas City Center
09:24PM 37.9661 -91.7319 241° Southwest 130 150 11,800  Descending Kansas City Center
09:25PM 37.9481 -91.7717 240° Southwest 130 150 11,900  Climbing Kansas City Center
09:26PM 37.9272 -91.8097 235° Southwest 130 150 11,900 -60 Level Kansas City Center
09:27PM 37.9083 -91.8481 238° Southwest 129 148 11,800  Descending Kansas City Center
09:28PM 37.8861 -91.8953 239° Southwest 129 148 11,900  Climbing Kansas City Center
09:29PM 37.8678 -91.9347 240° Southwest 129 148 11,900  Level Kansas City Center
09:30PM 37.8483 -91.9739 238° Southwest 131 151 11,900  Level Kansas City Center
09:31PM 37.8306 -92.0139 241° Southwest 131 151 11,900 -60 Level Kansas City Center
09:32PM 37.8103 -92.0536 237° Southwest 132 152 11,800 -60 Descending Kansas City Center
09:33PM 37.7911 -92.0928 238° Southwest 131 151 11,800  Level Kansas City Center
09:34PM 37.7711 -92.1319 237° Southwest 132 152 11,900  Climbing Kansas City Center
09:35PM 37.7547 -92.1733 243° Southwest 131 151 11,800  Descending Kansas City Center
09:36PM 37.7342 -92.2131 237° Southwest 134 154 11,900  Climbing Kansas City Center
09:37PM 37.7150 -92.2536 239° Southwest 133 153 11,900  Level Kansas City Center
09:38PM 37.6936 -92.2925 235° Southwest 134 154 11,900  Level Kansas City Center
09:39PM 37.6711 -92.3406 239° Southwest 132 152 11,900  Level Kansas City Center
09:40PM 37.6497 -92.3806 236° Southwest 134 154 11,900 -120 Level Kansas City Center
09:41PM 37.6303 -92.4217 239° Southwest 135 155 11,700 -300 Descending Kansas City Center
09:42PM 37.6114 -92.4636 240° Southwest 136 157 11,400 -360 Descending Kansas City Center
09:43PM 37.5931 -92.5031 240° Southwest 132 152 11,000 -540 Descending Kansas City Center
09:44PM 37.5736 -92.5431 238° Southwest 132 152 10,400 -540 Descending Kansas City Center
09:45PM 37.5525 -92.5833 237° Southwest 135 155 9,900 -540 Descending Kansas City Center
09:46PM 37.5317 -92.6208 235° Southwest 132 152 9,400 -480 Descending Kansas City Center
09:47PM 37.5131 -92.6617 240° Southwest 132 152 9,000 -480 Descending Kansas City Center
09:48PM 37.4947 -92.7003 239° Southwest 131 151 8,500 -540 Descending Kansas City Center
09:49PM 37.4725 -92.7453 238° Southwest 128 147 7,900 -540 Descending Kansas City Center
09:50PM 37.4539 -92.7819 237° Southwest 126 145 7,400 -540 Descending Kansas City Center
09:51PM 37.4378 -92.8172 240° Southwest 121 139 6,800 -660 Descending Kansas City Center
09:52PM 37.4192 -92.8522 236° Southwest 120 138 6,100 -720 Descending Kansas City Center
09:54PM 37.4011 -92.8886 238° Southwest 121 139 5,400 -540 Descending Kansas City Center
09:55PM 37.3847 -92.9231 239° Southwest 119 137 5,000 -360 Descending Kansas City Center
09:56PM 37.3681 -92.9553 237° Southwest 114 131 4,700 -420 Descending Kansas City Center
09:57PM 37.3506 -92.9892 237° Southwest 113 130 4,200 -540 Descending Kansas City Center
09:58PM 37.3336 -93.0256 240° Southwest 117 135 3,700 -540 Descending Kansas City Center
09:59PM 37.3167 -93.0617 239° Southwest 118 136 3,200 -540 Descending Kansas City Center
10:00PM 37.2964 -93.1039 239° Southwest 118 136 2,700 -420 Descending Kansas City Center
10:01PM 37.2811 -93.1381 241° Southwest 116 133 2,400 -300 Descending Kansas City Center
10:02PM 37.2653 -93.1736 241° Southwest 115 132 2,100 -180 Descending Kansas City Center
10:03PM 37.2472 -93.2042 233° Southwest 113 130 2,100  Level Kansas City Center
10:04PM 37.2347 -93.2353 243° Southwest 106 122 2,200 -180 Climbing Kansas City Center
10:05PM 37.2447 -93.2708 289° West 111 128 1,800 -300 Descending Kansas City Center
10:06PM 37.2286 -93.2661 167° South 80 92 1,600 -180 Descending Kansas City Center
10:07PM 37.2178 -93.2497 130° Southeast 77 89 1,500 -120 Descending Kansas City Center